Time;durP1;ratioP1;P1;durP2;ratioP2;P2;SDS_P1;SDS_P2;PMS_P1;PMS_P2;Temp;Humidity;BMP_temperature;BMP_pressure;BME280_temperature;BME280_humidity;BME280_pressure;Samples;Min_cycle;Max_cycle;Signal;HPM_P1;HPM_P2
2023/08/23 00:00:11;;;;;;;15.90;13.40;;;;;;;21.05;100.00;96699.89;109552;1289;22189;-92
2023/08/23 00:02:57;;;;;;;16.00;13.00;;;;;;;21.06;100.00;96696.31;109483;1287;22955;-91
2023/08/23 00:05:23;;;;;;;14.10;12.70;;;;;;;21.04;100.00;96706.02;109570;1290;22221;-92
2023/08/23 00:07:49;;;;;;;14.90;13.00;;;;;;;21.03;100.00;96710.21;109417;1287;139005;-91
2023/08/23 00:10:16;;;;;;;15.90;14.20;;;;;;;21.01;100.00;96704.48;109452;1291;22319;-91
2023/08/23 00:12:43;;;;;;;18.40;13.70;;;;;;;21.00;100.00;96704.09;109303;1290;139049;-92
2023/08/23 00:15:10;;;;;;;16.80;13.30;;;;;;;20.99;100.00;96706.52;109547;1290;22228;-91
2023/08/23 00:17:36;;;;;;;16.60;13.90;;;;;;;21.00;100.00;96705.67;109643;1288;22344;-90
2023/08/23 00:20:04;;;;;;;16.30;14.10;;;;;;;21.02;100.00;96705.55;109496;1289;138850;-91
2023/08/23 00:22:30;;;;;;;16.70;14.40;;;;;;;21.04;100.00;96702.20;109429;1287;23154;-91
2023/08/23 00:24:56;;;;;;;15.50;13.40;;;;;;;21.05;100.00;96708.81;109447;1286;138936;-91
2023/08/23 00:27:22;;;;;;;16.60;13.90;;;;;;;21.03;100.00;96702.88;109424;1282;22222;-91
2023/08/23 00:29:49;;;;;;;15.10;13.50;;;;;;;21.01;100.00;96709.02;109612;1289;22810;-91
2023/08/23 00:32:16;;;;;;;15.50;13.80;;;;;;;21.00;100.00;96708.89;109426;1290;138898;-92
2023/08/23 00:34:42;;;;;;;16.20;13.70;;;;;;;20.99;100.00;96706.14;109569;1290;22225;-91
2023/08/23 00:37:08;;;;;;;15.40;12.40;;;;;;;21.00;100.00;96706.21;109471;1286;139118;-92
2023/08/23 00:39:35;;;;;;;18.60;14.20;;;;;;;20.98;100.00;96708.06;109622;1284;22399;-91
2023/08/23 00:42:02;;;;;;;17.10;13.90;;;;;;;20.97;100.00;96704.98;109525;1290;22260;-92
2023/08/23 00:44:29;;;;;;;16.10;12.70;;;;;;;20.96;100.00;96703.55;109407;1289;139059;-92
2023/08/23 00:46:55;;;;;;;16.30;13.60;;;;;;;20.95;100.00;96704.42;109641;1285;22253;-92
2023/08/23 00:49:22;;;;;;;16.60;13.90;;;;;;;20.94;100.00;96695.11;109395;1290;139178;-91
2023/08/23 00:51:49;;;;;;;16.10;14.50;;;;;;;20.93;100.00;96696.20;109562;1290;22262;-91
2023/08/23 00:54:15;;;;;;;16.90;14.50;;;;;;;20.91;100.00;96701.73;109547;1290;22236;-92
2023/08/23 00:56:41;;;;;;;16.20;14.60;;;;;;;20.90;100.00;96711.70;109379;1283;139431;-91
2023/08/23 00:59:08;;;;;;;17.40;14.80;;;;;;;20.90;100.00;96713.86;109581;1290;23090;-92
2023/08/23 01:01:34;;;;;;;18.30;14.50;;;;;;;20.88;100.00;96714.48;109414;1285;139321;-91
2023/08/23 01:04:00;;;;;;;18.20;14.70;;;;;;;20.87;100.00;96709.64;109620;1289;22197;-91
2023/08/23 01:06:38;;;;;;;15.60;14.10;;;;;;;20.84;100.00;96702.04;109434;1286;138782;-91
2023/08/23 01:09:24;;;;;;;16.90;14.30;;;;;;;20.79;100.00;96694.90;109635;1290;22196;-91
2023/08/23 01:12:13;;;;;;;15.80;14.20;;;;;;;20.78;100.00;96700.85;109613;1289;22302;-91
2023/08/23 01:15:05;;;;;;;17.20;14.40;;;;;;;20.77;100.00;96706.02;109527;1287;138749;-91
2023/08/23 01:17:34;;;;;;;16.40;14.80;;;;;;;20.76;100.00;96710.48;109568;1284;22697;-91
2023/08/23 01:20:01;;;;;;;17.10;15.20;;;;;;;20.74;100.00;96710.73;109559;1290;138742;-91
2023/08/23 01:22:29;;;;;;;15.90;14.00;;;;;;;20.74;100.00;96711.27;109516;1290;22342;-91
2023/08/23 01:24:55;;;;;;;17.50;15.80;;;;;;;20.73;100.00;96712.35;109536;1290;139004;-91
2023/08/23 01:27:21;;;;;;;16.90;15.20;;;;;;;20.72;100.00;96711.45;109635;1286;23121;-91
2023/08/23 01:29:48;;;;;;;17.70;15.00;;;;;;;20.71;100.00;96708.52;109434;1289;22388;-91
2023/08/23 01:32:36;;;;;;;18.50;14.90;;;;;;;20.71;100.00;96705.98;109409;1290;139055;-91
2023/08/23 01:35:17;;;;;;;17.90;14.60;;;;;;;20.71;100.00;96702.94;109644;1289;22169;-91
2023/08/23 01:37:45;;;;;;;16.30;14.60;;;;;;;20.71;100.00;96700.06;109374;1286;137703;-91
2023/08/23 01:40:11;;;;;;;17.80;15.40;;;;;;;20.69;100.00;96699.61;109427;1279;23067;-92
2023/08/23 01:42:38;;;;;;;18.70;14.40;;;;;;;20.68;100.00;96695.33;109574;1283;139359;-92
2023/08/23 01:45:05;;;;;;;17.70;15.00;;;;;;;20.68;100.00;96696.86;109616;1286;23039;-91
2023/08/23 01:47:31;;;;;;;15.10;13.70;;;;;;;20.68;100.00;96698.08;109532;1283;23047;-91
2023/08/23 01:49:57;;;;;;;19.80;15.70;;;;;;;20.68;100.00;96688.05;109528;1283;139314;-92
2023/08/23 01:52:23;;;;;;;18.00;16.00;;;;;;;20.68;100.00;96679.27;109544;1287;22423;-91
2023/08/23 01:54:49;;;;;;;18.20;14.80;;;;;;;20.67;100.00;96677.79;109481;1284;139397;-91
2023/08/23 01:57:16;;;;;;;20.40;15.10;;;;;;;20.67;100.00;96681.61;109525;1290;22225;-92
2023/08/23 01:59:47;;;;;;;16.40;14.40;;;;;;;20.68;100.00;96699.18;109554;1290;22276;-91
2023/08/23 02:02:13;;;;;;;16.70;15.10;;;;;;;20.69;100.00;96710.02;109405;1289;139093;-92
2023/08/23 02:04:39;;;;;;;15.80;14.20;;;;;;;20.69;100.00;96708.50;109613;1286;22211;-92
2023/08/23 02:07:05;;;;;;;19.70;15.80;;;;;;;20.68;100.00;96705.63;109526;1289;139019;-92
2023/08/23 02:09:31;;;;;;;17.20;15.50;;;;;;;20.67;100.00;96709.47;109558;1289;22303;-92
2023/08/23 02:11:57;;;;;;;16.80;15.20;;;;;;;20.67;100.00;96715.70;109620;1290;22184;-91
2023/08/23 02:14:23;;;;;;;17.80;15.20;;;;;;;20.67;100.00;96719.76;109485;1289;138851;-92
2023/08/23 02:16:49;;;;;;;20.00;15.70;;;;;;;20.67;100.00;96719.96;109527;1283;22230;-91
2023/08/23 02:19:16;;;;;;;18.00;15.20;;;;;;;20.67;100.00;96723.94;109328;1287;138685;-91
2023/08/23 02:21:42;;;;;;;17.60;15.90;;;;;;;20.68;100.00;96729.08;109454;1286;22931;-91
2023/08/23 02:24:08;;;;;;;19.10;17.10;;;;;;;20.69;100.00;96738.33;109455;1291;22218;-92
2023/08/23 02:26:37;;;;;;;20.70;18.60;;;;;;;20.71;100.00;96737.30;109376;1283;139283;-91
2023/08/23 02:29:03;;;;;;;21.10;18.80;;;;;;;20.74;100.00;96738.14;109560;1283;23083;-92
2023/08/23 02:31:30;;;;;;;24.00;20.10;;;;;;;20.76;100.00;96736.70;109236;1289;139108;-92
2023/08/23 02:33:56;;;;;;;24.50;21.50;;;;;;;20.78;100.00;96730.64;109435;1290;22239;-91
2023/08/23 02:36:22;;;;;;;22.80;20.60;;;;;;;20.80;100.00;96726.92;109315;1285;22410;-91
2023/08/23 02:38:49;;;;;;;25.80;22.10;;;;;;;20.82;100.00;96730.94;109443;1286;22379;-92
2023/08/23 02:41:15;;;;;;;26.30;22.10;;;;;;;20.84;100.00;96730.84;109521;1291;22233;-91
2023/08/23 02:43:41;;;;;;;25.60;22.90;;;;;;;20.84;100.00;96721.11;109188;1291;138820;-91
2023/08/23 02:46:08;;;;;;;29.50;22.90;;;;;;;20.86;100.00;96704.87;109415;1287;23018;-92
2023/08/23 02:48:34;;;;;;;28.10;21.60;;;;;;;20.85;100.00;96670.47;109169;1289;139775;-91
2023/08/23 02:51:00;;;;;;;23.30;20.80;;;;;;;20.83;100.00;96653.33;109516;1289;23071;-91
2023/08/23 02:53:27;;;;;;;21.90;19.80;;;;;;;20.83;100.00;96677.41;109509;1283;22229;-90
2023/08/23 02:55:53;;;;;;;24.40;21.90;;;;;;;20.83;100.00;96698.17;109297;1291;138673;-91
2023/08/23 02:58:19;;;;;;;22.80;20.40;;;;;;;20.83;100.00;96698.48;109246;1286;180735;-91
2023/08/23 03:00:45;;;;;;;24.50;22.10;;;;;;;20.83;100.00;96692.98;109316;1283;139236;-91
2023/08/23 03:03:11;;;;;;;25.90;23.30;;;;;;;20.82;100.00;96683.30;109434;1291;22280;-91
2023/08/23 03:05:37;;;;;;;25.70;22.00;;;;;;;20.80;100.00;96683.24;109395;1286;22273;-91
2023/08/23 03:08:03;;;;;;;25.20;22.60;;;;;;;20.81;100.00;96689.92;109314;1287;138687;-92
2023/08/23 03:10:29;;;;;;;25.70;21.90;;;;;;;20.83;100.00;96695.52;109388;1291;22254;-91
2023/08/23 03:12:55;;;;;;;25.20;22.80;;;;;;;20.83;100.00;96700.42;109418;1285;138981;-91
2023/08/23 03:15:22;;;;;;;24.70;22.20;;;;;;;20.82;100.00;96707.55;109417;1286;22665;-91
2023/08/23 03:17:48;;;;;;;25.80;23.10;;;;;;;20.81;100.00;96708.41;109456;1287;22210;-90
2023/08/23 03:20:14;;;;;;;24.50;22.20;;;;;;;20.80;100.00;96714.41;109440;1283;138720;-91
2023/08/23 03:22:40;;;;;;;24.50;22.00;;;;;;;20.79;100.00;96718.30;109359;1292;22307;-91
2023/08/23 03:25:07;;;;;;;24.00;21.60;;;;;;;20.77;100.00;96717.85;109399;1283;138973;-91
2023/08/23 03:27:34;;;;;;;24.10;21.60;;;;;;;20.76;100.00;96716.41;109644;1288;22166;-92
2023/08/23 03:30:00;;;;;;;28.10;25.20;;;;;;;20.73;100.00;96707.71;109425;1291;23072;-91
2023/08/23 03:32:26;;;;;;;25.70;22.70;;;;;;;20.72;100.00;96698.44;109391;1291;139993;-91
2023/08/23 03:34:53;;;;;;;27.30;24.40;;;;;;;20.71;100.00;96694.36;109459;1283;22231;-91
2023/08/23 03:37:19;;;;;;;26.70;23.70;;;;;;;20.71;100.00;96691.67;109369;1291;139433;-91
2023/08/23 03:39:45;;;;;;;24.80;22.20;;;;;;;20.70;100.00;96686.59;109551;1288;22694;-92
2023/08/23 03:42:11;;;;;;;26.40;23.80;;;;;;;20.70;100.00;96686.84;109520;1289;22237;-90
2023/08/23 03:44:38;;;;;;;26.10;23.20;;;;;;;20.68;100.00;96684.40;109341;1291;138925;-92
2023/08/23 03:47:04;;;;;;;25.00;22.30;;;;;;;20.67;100.00;96683.53;109291;1291;22947;-92
2023/08/23 03:49:30;;;;;;;26.60;23.70;;;;;;;20.67;100.00;96686.17;109342;1291;139685;-90
2023/08/23 03:51:56;;;;;;;25.60;22.90;;;;;;;20.67;100.00;96689.98;109420;1286;22260;-92
2023/08/23 03:54:22;;;;;;;26.20;22.90;;;;;;;20.64;100.00;96689.85;109453;1291;22216;-92
2023/08/23 03:56:48;;;;;;;25.70;21.80;;;;;;;20.62;100.00;96695.89;109448;1290;22149;-91
2023/08/23 03:59:14;;;;;;;25.30;22.40;;;;;;;20.60;100.00;96698.77;109429;1291;22294;-92
2023/08/23 04:01:40;;;;;;;24.70;21.90;;;;;;;20.60;100.00;96701.09;109405;1291;138939;-91
2023/08/23 04:04:06;;;;;;;25.40;22.60;;;;;;;20.58;100.00;96706.98;109445;1287;22324;-91
2023/08/23 04:06:32;;;;;;;27.20;21.00;;;;;;;20.57;100.00;96708.69;109333;1286;139274;-92
2023/08/23 04:08:58;;;;;;;26.10;21.30;;;;;;;20.55;100.00;96710.98;109501;1285;22388;-92
2023/08/23 04:11:26;;;;;;;24.60;21.90;;;;;;;20.55;100.00;96718.96;109314;1283;22236;-92
2023/08/23 04:13:52;;;;;;;22.50;20.40;;;;;;;20.55;100.00;96724.03;109340;1280;138905;-91
2023/08/23 04:16:18;;;;;;;23.80;21.20;;;;;;;20.55;100.00;96726.04;109538;1291;22275;-92
2023/08/23 04:18:45;;;;;;;23.80;21.00;;;;;;;20.54;100.00;96724.16;109376;1291;138879;-91
2023/08/23 04:21:12;;;;;;;23.40;20.80;;;;;;;20.53;100.00;96722.34;109466;1283;22692;-90
2023/08/23 04:23:38;;;;;;;24.90;21.30;;;;;;;20.52;100.00;96726.45;109460;1291;22387;-91
2023/08/23 04:26:04;;;;;;;25.10;22.40;;;;;;;20.50;100.00;96722.89;109369;1281;138807;-92
2023/08/23 04:28:30;;;;;;;22.40;20.00;;;;;;;20.51;100.00;96715.09;109475;1291;22369;-91
2023/08/23 04:31:01;;;;;;;24.70;21.20;;;;;;;20.51;100.00;96714.23;109413;1287;139050;-91
2023/08/23 04:33:29;;;;;;;22.90;20.30;;;;;;;20.51;100.00;96710.65;109469;1286;22120;-92
2023/08/23 04:35:55;;;;;;;22.50;19.20;;;;;;;20.50;100.00;96714.02;109493;1283;22346;-91
2023/08/23 04:38:22;;;;;;;21.10;19.00;;;;;;;20.49;100.00;96716.23;109429;1283;137608;-91
2023/08/23 04:40:48;;;;;;;20.20;18.20;;;;;;;20.48;100.00;96718.29;109462;1280;22350;-92
2023/08/23 04:43:14;;;;;;;23.60;20.20;;;;;;;20.49;100.00;96718.19;109442;1291;138862;-91
2023/08/23 04:45:41;;;;;;;23.90;19.80;;;;;;;20.50;100.00;96718.73;109488;1291;22215;-90
2023/08/23 04:48:08;;;;;;;23.30;20.60;;;;;;;20.51;100.00;96718.78;109479;1285;22174;-91
2023/08/23 04:50:35;;;;;;;23.20;20.50;;;;;;;20.52;100.00;96719.00;109397;1287;139277;-90
2023/08/23 04:53:01;;;;;;;22.00;19.50;;;;;;;20.51;100.00;96720.88;109527;1283;22186;-91
2023/08/23 04:55:27;;;;;;;21.80;19.60;;;;;;;20.50;100.00;96726.33;109440;1291;138704;-91
2023/08/23 04:57:54;;;;;;;22.30;20.00;;;;;;;20.48;100.00;96728.04;109502;1287;22231;-91
2023/08/23 05:00:20;;;;;;;22.20;19.90;;;;;;;20.47;100.00;96730.41;109617;1289;22231;-92
2023/08/23 05:02:47;;;;;;;24.40;21.90;;;;;;;20.46;100.00;96728.33;109384;1290;139214;-92
2023/08/23 05:05:15;;;;;;;24.50;21.90;;;;;;;20.44;100.00;96734.33;109414;1286;22185;-92
2023/08/23 05:07:41;;;;;;;24.20;21.60;;;;;;;20.46;100.00;96736.13;109498;1286;138714;-92
2023/08/23 05:10:07;;;;;;;25.30;22.70;;;;;;;20.44;100.00;96739.54;109535;1289;22743;-92
2023/08/23 05:12:34;;;;;;;27.20;24.30;;;;;;;20.40;100.00;96737.65;109436;1289;139562;-91
2023/08/23 05:15:00;;;;;;;27.00;24.10;;;;;;;20.38;100.00;96738.14;109426;1286;22221;-92
2023/08/23 05:17:27;;;;;;;28.80;25.70;;;;;;;20.37;100.00;96740.98;109537;1286;22239;-91
2023/08/23 05:19:54;;;;;;;27.20;24.30;;;;;;;20.38;100.00;96739.40;109393;1286;138902;-92
2023/08/23 05:22:20;;;;;;;28.20;25.20;;;;;;;20.38;100.00;96740.36;109424;1291;22703;-92
2023/08/23 05:24:47;;;;;;;28.70;25.40;;;;;;;20.39;100.00;96741.80;109439;1287;139042;-92
2023/08/23 05:27:13;;;;;;;32.00;28.50;;;;;;;20.38;100.00;96746.44;109542;1287;22942;-91
2023/08/23 05:29:39;;;;;;;31.70;26.70;;;;;;;20.40;100.00;96752.10;109400;1291;22291;-91
2023/08/23 05:32:07;;;;;;;34.20;29.30;;;;;;;20.39;100.00;96755.73;109229;1290;138826;-91
2023/08/23 05:34:34;;;;;;;36.20;31.70;;;;;;;20.35;100.00;96757.08;109592;1289;23075;-92
2023/08/23 05:37:04;;;;;;;33.30;28.50;;;;;;;20.33;100.00;96758.06;109387;1286;139033;-92
2023/08/23 05:39:31;;;;;;;34.70;30.90;;;;;;;20.30;100.00;96758.98;109490;1285;22265;-91
2023/08/23 05:41:58;;;;;;;39.10;31.80;;;;;;;20.26;100.00;96759.96;109535;1290;23274;-92
2023/08/23 05:44:24;;;;;;;36.00;30.40;;;;;;;20.26;100.00;96760.73;109405;1286;139384;-92
2023/08/23 05:46:55;;;;;;;36.30;29.90;;;;;;;20.27;100.00;96760.92;109502;1286;22161;-92
2023/08/23 05:49:22;;;;;;;35.80;29.70;;;;;;;20.29;100.00;96756.63;109444;1290;138741;-91
2023/08/23 05:52:08;;;;;;;37.70;30.40;;;;;;;20.32;100.00;96754.80;109611;1283;22203;-93
2023/08/23 05:54:35;;;;;;;32.60;29.10;;;;;;;20.32;100.00;96755.48;109403;1291;138833;-92
2023/08/23 05:57:02;;;;;;;32.30;28.80;;;;;;;20.33;100.00;96752.27;109522;1290;22248;-91
2023/08/23 05:59:29;;;;;;;33.10;29.50;;;;;;;20.34;100.00;96752.73;109536;1283;22173;-91
2023/08/23 06:01:55;;;;;;;35.80;31.70;;;;;;;20.35;100.00;96749.89;109485;1291;138970;-92
2023/08/23 06:04:23;;;;;;;40.30;32.40;;;;;;;20.35;100.00;96747.59;109605;1290;22228;-93
2023/08/23 06:06:51;;;;;;;39.30;31.00;;;;;;;20.34;100.00;96752.63;109454;1283;138976;-91
2023/08/23 06:09:19;;;;;;;36.60;31.70;;;;;;;20.33;100.00;96754.38;109433;1289;22805;-91
2023/08/23 06:11:45;;;;;;;36.70;31.00;;;;;;;20.33;100.00;96757.83;109479;1291;22229;-91
2023/08/23 06:14:19;;;;;;;39.90;33.10;;;;;;;20.31;100.00;96760.74;109398;1287;138662;-91
2023/08/23 06:16:49;;;;;;;41.20;33.20;;;;;;;20.30;100.00;96757.77;109387;1291;22253;-91
2023/08/23 06:19:16;;;;;;;45.10;33.20;;;;;;;20.29;100.00;96758.69;109396;1286;138834;-92
2023/08/23 06:21:43;;;;;;;48.30;36.80;;;;;;;20.26;100.00;96758.85;109358;1289;22265;-91
2023/08/23 06:24:10;;;;;;;45.60;34.90;;;;;;;20.23;100.00;96764.13;109493;1289;22319;-91
2023/08/23 06:26:36;;;;;;;56.90;34.80;;;;;;;20.18;100.00;96763.91;109362;1287;138757;-92
2023/08/23 06:29:03;;;;;;;53.30;37.00;;;;;;;20.13;100.00;96761.64;109369;1291;22200;-92
2023/08/23 06:31:30;;;;;;;56.20;35.80;;;;;;;20.11;100.00;96762.66;109405;1286;139176;-92
2023/08/23 06:33:56;;;;;;;40.50;32.40;;;;;;;20.10;100.00;96766.13;109495;1286;22322;-92
2023/08/23 06:36:23;;;;;;;53.20;40.30;;;;;;;20.06;100.00;96774.65;109326;1286;138837;-91
2023/08/23 06:38:49;;;;;;;58.70;40.40;;;;;;;20.00;100.00;96776.04;109493;1290;22815;-92
2023/08/23 06:41:17;;;;;;;54.50;39.10;;;;;;;19.96;100.00;96772.05;109497;1286;22240;-92
2023/08/23 06:43:46;;;;;;;63.40;42.50;;;;;;;19.94;100.00;96776.60;109424;1291;138874;-90
2023/08/23 06:46:13;;;;;;;56.70;41.20;;;;;;;19.91;100.00;96777.85;109507;1286;23028;-92
2023/08/23 06:48:40;;;;;;;56.30;39.50;;;;;;;19.89;100.00;96781.61;109379;1287;138851;-91
2023/08/23 06:51:06;;;;;;;47.60;36.60;;;;;;;19.87;100.00;96783.04;109539;1289;22307;-91
2023/08/23 06:53:33;;;;;;;46.10;35.10;;;;;;;19.86;100.00;96789.23;109498;1290;23029;-91
2023/08/23 06:55:59;;;;;;;47.00;37.90;;;;;;;19.82;100.00;96790.49;109472;1290;138783;-91
2023/08/23 06:58:25;;;;;;;48.00;38.30;;;;;;;19.80;100.00;96791.84;109501;1286;22398;-91
2023/08/23 07:00:56;;;;;;;48.90;37.50;;;;;;;19.83;100.00;96794.48;109387;1287;139642;-92
2023/08/23 07:03:22;;;;;;;51.80;38.00;;;;;;;19.87;100.00;96798.02;109495;1290;22217;-91
2023/08/23 07:05:49;;;;;;;54.30;38.30;;;;;;;19.87;100.00;96794.12;109511;1283;23026;-92
2023/08/23 07:08:17;;;;;;;50.10;38.00;;;;;;;19.87;100.00;96798.55;109435;1277;138670;-92
2023/08/23 07:10:43;;;;;;;52.60;38.90;;;;;;;19.86;100.00;96795.59;109569;1285;22225;-92
2023/08/23 07:13:09;;;;;;;53.40;38.40;;;;;;;19.87;100.00;96796.19;109416;1289;138797;-92
2023/08/23 07:15:36;;;;;;;50.60;38.40;;;;;;;19.90;100.00;96801.16;109469;1291;22328;-92
2023/08/23 07:18:02;;;;;;;47.10;33.70;;;;;;;19.89;100.00;96799.18;109603;1291;22917;-91
2023/08/23 07:20:28;;;;;;;51.70;38.70;;;;;;;19.87;100.00;96802.56;109329;1283;138955;-92
2023/08/23 07:22:54;;;;;;;53.60;37.50;;;;;;;19.86;100.00;96802.73;109296;1288;22208;-91
2023/08/23 07:25:20;;;;;;;51.90;37.30;;;;;;;19.87;100.00;96805.99;109323;1287;138745;-92
2023/08/23 07:27:46;;;;;;;54.60;38.60;;;;;;;19.86;100.00;96803.02;109560;1291;22282;-91
2023/08/23 07:30:12;;;;;;;56.00;39.10;;;;;;;19.88;100.00;96802.48;109464;1287;22328;-92
2023/08/23 07:32:39;;;;;;;57.90;38.60;;;;;;;19.90;100.00;96807.52;109373;1285;138779;-91
2023/08/23 07:35:05;;;;;;;52.90;37.50;;;;;;;19.91;100.00;96807.50;109448;1289;22207;-91
2023/08/23 07:37:31;;;;;;;49.30;38.00;;;;;;;19.94;100.00;96807.13;109347;1291;138903;-91
2023/08/23 07:39:57;;;;;;;48.30;38.30;;;;;;;19.95;100.00;96805.52;109561;1291;22196;-91
2023/08/23 07:42:24;;;;;;;48.00;38.20;;;;;;;19.95;100.00;96812.73;109354;1285;138880;-91
2023/08/23 07:44:50;;;;;;;48.40;39.20;;;;;;;19.93;100.00;96818.05;109479;1274;22225;-91
2023/08/23 07:47:16;;;;;;;53.80;40.20;;;;;;;19.92;100.00;96819.74;109496;1283;22358;-91
2023/08/23 07:49:43;;;;;;;46.40;38.30;;;;;;;19.90;100.00;96821.24;109335;1283;138995;-92
2023/08/23 07:52:09;;;;;;;55.60;41.70;;;;;;;19.90;100.00;96827.77;109414;1283;22166;-92
2023/08/23 07:54:35;;;;;;;52.90;39.50;;;;;;;19.89;100.00;96827.51;109348;1285;139300;-91
2023/08/23 07:57:01;;;;;;;53.00;42.50;;;;;;;19.88;100.00;96826.36;109455;1283;22287;-91
2023/08/23 07:59:28;;;;;;;45.20;37.20;;;;;;;19.86;100.00;96834.34;109535;1291;22138;-92
2023/08/23 08:01:54;;;;;;;53.40;41.50;;;;;;;19.86;100.00;96832.59;109507;1283;139111;-91
2023/08/23 08:04:20;;;;;;;49.30;39.30;;;;;;;19.86;100.00;96836.86;109432;1291;22218;-92
2023/08/23 08:06:46;;;;;;;53.90;41.40;;;;;;;19.87;100.00;96837.89;109518;1283;139551;-92
2023/08/23 08:09:12;;;;;;;47.60;40.70;;;;;;;19.89;100.00;96837.67;109527;1291;23197;-91
2023/08/23 08:11:38;;;;;;;48.50;38.50;;;;;;;19.90;100.00;96834.11;109306;1283;22354;-92
2023/08/23 08:14:05;;;;;;;46.50;38.50;;;;;;;19.89;100.00;96835.73;109373;1285;138938;-90
2023/08/23 08:16:31;;;;;;;50.80;38.30;;;;;;;19.88;100.00;96838.60;109384;1283;23157;-91
2023/08/23 08:18:57;;;;;;;48.20;37.70;;;;;;;19.89;100.00;96840.09;109238;1284;139043;-91
2023/08/23 08:21:23;;;;;;;49.90;38.80;;;;;;;19.93;100.00;96840.70;109545;1291;22254;-91
2023/08/23 08:23:50;;;;;;;54.10;39.50;;;;;;;19.95;100.00;96840.48;109589;1284;22214;-91
2023/08/23 08:26:16;;;;;;;50.90;39.00;;;;;;;19.99;100.00;96843.15;109289;1291;139034;-90
2023/08/23 08:28:43;;;;;;;50.10;37.90;;;;;;;20.02;100.00;96848.73;109425;1286;22321;-92
2023/08/23 08:31:10;;;;;;;51.90;38.40;;;;;;;20.05;100.00;96852.61;109235;1290;138781;-92
2023/08/23 08:33:37;;;;;;;46.90;36.20;;;;;;;20.09;100.00;96846.83;109409;1290;22236;-92
2023/08/23 08:36:04;;;;;;;43.00;34.60;;;;;;;20.13;100.00;96845.09;109424;1287;22263;-91
2023/08/23 08:38:30;;;;;;;46.00;36.60;;;;;;;20.15;100.00;96843.55;109342;1291;138735;-92
2023/08/23 08:40:57;;;;;;;42.00;34.70;;;;;;;20.17;100.00;96846.19;109587;1283;22338;-92
2023/08/23 08:43:24;;;;;;;45.00;34.90;;;;;;;20.19;100.00;96845.41;109253;1290;138787;-91
2023/08/23 08:45:50;;;;;;;45.90;32.70;;;;;;;20.19;100.00;96838.61;109464;1290;22334;-91
2023/08/23 08:48:16;;;;;;;42.50;33.60;;;;;;;20.21;100.00;96839.96;109615;1290;23055;-91
2023/08/23 08:50:43;;;;;;;44.80;33.30;;;;;;;20.23;100.00;96839.64;109283;1290;138850;-91
2023/08/23 08:53:17;;;;;;;41.40;31.80;;;;;;;20.27;100.00;96845.52;109467;1287;22985;-91
2023/08/23 08:55:45;;;;;;;49.40;35.30;;;;;;;20.28;100.00;96845.02;109472;1291;138949;-92
2023/08/23 08:58:19;;;;;;;42.10;32.50;;;;;;;20.30;100.00;96848.59;109342;1290;22206;-92
2023/08/23 09:00:48;;;;;;;46.10;34.00;;;;;;;20.32;100.00;96845.45;109349;1290;139365;-92
2023/08/23 09:03:15;;;;;;;45.00;34.60;;;;;;;20.35;100.00;96841.89;109451;1287;22339;-92
2023/08/23 09:05:41;;;;;;;44.20;34.00;;;;;;;20.35;100.00;96833.73;109455;1284;22205;-92
2023/08/23 09:08:08;;;;;;;47.70;35.20;;;;;;;20.34;100.00;96835.61;109330;1291;138914;-91
2023/08/23 09:10:54;;;;;;;44.30;34.00;;;;;;;20.37;100.00;96837.66;109534;1291;22968;-92
2023/08/23 09:13:21;;;;;;;47.90;34.30;;;;;;;20.37;100.00;96847.70;109358;1291;138778;-91
2023/08/23 09:15:47;;;;;;;45.70;36.00;;;;;;;20.37;100.00;96847.98;109486;1289;22253;-92
2023/08/23 09:18:18;;;;;;;46.30;36.80;;;;;;;20.40;100.00;96849.75;109496;1291;22777;-92
2023/08/23 09:20:46;;;;;;;43.70;32.50;;;;;;;20.40;100.00;96852.03;109372;1287;139306;-92
2023/08/23 09:23:13;;;;;;;44.70;33.50;;;;;;;20.37;100.00;96853.63;109520;1283;22187;-92
2023/08/23 09:25:40;;;;;;;47.00;34.90;;;;;;;20.36;100.00;96857.66;109480;1280;138890;-91
2023/08/23 09:28:11;;;;;;;45.10;34.60;;;;;;;20.35;100.00;96860.16;109476;1291;22208;-93
2023/08/23 09:30:37;;;;;;;47.60;34.80;;;;;;;20.36;100.00;96863.27;109403;1290;140004;-91
2023/08/23 09:33:04;;;;;;;49.30;33.80;;;;;;;20.36;100.00;96862.41;109457;1290;22170;-91
2023/08/23 09:35:30;;;;;;;47.10;35.30;;;;;;;20.34;100.00;96859.73;109447;1290;22948;-91
2023/08/23 09:37:57;;;;;;;45.10;34.20;;;;;;;20.36;100.00;96861.08;109382;1284;138730;-91
2023/08/23 09:40:25;;;;;;;47.50;34.90;;;;;;;20.36;100.00;96858.97;109677;1287;23076;-91
2023/08/23 09:42:51;;;;;;;49.80;36.60;;;;;;;20.39;100.00;96861.73;109412;1287;138865;-90
2023/08/23 09:45:22;;;;;;;47.70;35.30;;;;;;;20.41;100.00;96860.54;109616;1289;22370;-92
2023/08/23 09:47:59;;;;;;;47.40;34.90;;;;;;;20.40;100.00;96853.58;109490;1283;22240;-91
2023/08/23 09:50:27;;;;;;;43.00;34.00;;;;;;;20.40;100.00;96855.04;109380;1291;138666;-92
2023/08/23 09:53:04;;;;;;;43.80;33.70;;;;;;;20.38;100.00;96859.61;109436;1287;22359;-91
2023/08/23 09:55:30;;;;;;;45.50;36.70;;;;;;;20.36;100.00;96861.15;109519;1284;139194;-91
2023/08/23 09:57:56;;;;;;;43.90;35.00;;;;;;;20.35;100.00;96860.92;109459;1283;22120;-92
2023/08/23 10:00:23;;;;;;;41.80;35.20;;;;;;;20.38;100.00;96859.86;109356;1283;138847;-91
2023/08/23 10:02:49;;;;;;;45.00;38.00;;;;;;;20.40;100.00;96862.70;109562;1291;22227;-92
2023/08/23 10:05:18;;;;;;;47.00;37.60;;;;;;;20.41;100.00;96863.89;109502;1291;22675;-92
2023/08/23 10:07:44;;;;;;;51.10;36.40;;;;;;;20.42;100.00;96865.09;109456;1291;138751;-91
2023/08/23 10:10:11;;;;;;;50.80;38.70;;;;;;;20.41;100.00;96861.04;109639;1290;22305;-91
2023/08/23 10:12:45;;;;;;;54.10;39.70;;;;;;;20.40;100.00;96859.70;109378;1292;138956;-91
2023/08/23 10:15:16;;;;;;;52.10;39.80;;;;;;;20.38;100.00;96860.70;109477;1290;22245;-91
2023/08/23 10:17:45;;;;;;;51.60;39.20;;;;;;;20.36;100.00;96857.81;109604;1290;22268;-92
2023/08/23 10:20:12;;;;;;;51.50;39.10;;;;;;;20.34;100.00;96857.46;109375;1283;138866;-91
2023/08/23 10:22:40;;;;;;;54.10;41.00;;;;;;;20.34;100.00;96861.03;109495;1287;22182;-91
2023/08/23 10:25:17;;;;;;;53.80;38.80;;;;;;;20.34;100.00;96861.32;109487;1289;139050;-92
2023/08/23 10:27:46;;;;;;;49.60;38.50;;;;;;;20.31;100.00;96862.98;109466;1283;22192;-91
2023/08/23 10:30:26;;;;;;;49.80;38.70;;;;;;;20.27;100.00;96863.88;109466;1290;22329;-92
2023/08/23 10:32:53;;;;;;;51.10;37.00;;;;;;;20.20;100.00;96865.02;109610;1289;22356;-92
2023/08/23 10:35:34;;;;;;;49.30;37.30;;;;;;;20.16;100.00;96860.56;109544;1289;22149;-91
2023/08/23 10:38:05;;;;;;;50.60;37.10;;;;;;;20.16;100.00;96860.94;109417;1283;138976;-91
2023/08/23 10:40:34;;;;;;;42.60;34.40;;;;;;;20.12;100.00;96858.81;109604;1288;23246;-92
2023/08/23 10:43:14;;;;;;;44.50;34.70;;;;;;;20.12;100.00;96857.64;109345;1291;139811;-91
2023/08/23 10:46:06;;;;;;;48.60;36.70;;;;;;;20.12;100.00;96860.97;109499;1283;22196;-90
2023/08/23 10:48:34;;;;;;;39.90;31.00;;;;;;;20.12;100.00;96859.64;109509;1284;139497;-91
2023/08/23 10:51:01;;;;;;;47.60;37.10;;;;;;;20.11;100.00;96857.10;109591;1283;22248;-90
2023/08/23 10:53:27;;;;;;;48.70;36.30;;;;;;;20.09;100.00;96854.86;109688;1284;22238;-91
2023/08/23 10:55:55;;;;;;;46.30;35.10;;;;;;;20.12;100.00;96857.80;109519;1287;138856;-91
2023/08/23 10:58:21;;;;;;;48.20;36.10;;;;;;;20.13;100.00;96857.46;109484;1289;22229;-91
2023/08/23 11:00:53;;;;;;;53.60;37.70;;;;;;;20.11;100.00;96856.09;109409;1289;139080;-91